Time;durP1;ratioP1;P1;durP2;ratioP2;P2;SDS_P1;SDS_P2;PMS_P1;PMS_P2;Temp;Humidity;BMP_temperature;BMP_pressure;BME280_temperature;BME280_humidity;BME280_pressure;Samples;Min_cycle;Max_cycle;Signal;HPM_P1;HPM_P2
2023/07/18 00:00:37;;;;;;;3.70;2.35;;;13.00;99.90;;;;;;5007527;28;20030;-81
2023/07/18 00:03:06;;;;;;;3.63;2.50;;;13.00;99.90;;;;;;4983542;28;20105;-79
2023/07/18 00:05:34;;;;;;;2.92;2.55;;;13.00;99.90;;;;;;4989752;28;20049;-80
2023/07/18 00:07:59;;;;;;;3.55;2.40;;;13.00;99.90;;;;;;4999937;28;20038;-80
2023/07/18 00:10:25;;;;;;;2.63;2.13;;;13.00;99.90;;;;;;4974262;28;20500;-80
2023/07/18 00:12:50;;;;;;;2.80;2.40;;;13.00;99.90;;;;;;4978936;28;20708;-81
2023/07/18 00:15:16;;;;;;;4.25;2.92;;;13.00;99.90;;;;;;4985862;28;20030;-81
2023/07/18 00:17:43;;;;;;;4.63;2.80;;;13.00;99.90;;;;;;4983758;28;20115;-80
2023/07/18 00:20:13;;;;;;;3.92;2.25;;;13.00;99.90;;;;;;4989467;28;20030;-81
2023/07/18 00:22:40;;;;;;;4.43;2.53;;;13.00;99.90;;;;;;4979878;28;20026;-81
2023/07/18 00:25:10;;;;;;;2.70;2.45;;;13.00;99.90;;;;;;4983139;28;20030;-81
2023/07/18 00:27:38;;;;;;;5.32;2.35;;;13.00;99.90;;;;;;5007611;28;20026;-81
2023/07/18 00:30:08;;;;;;;2.63;2.08;;;13.00;99.90;;;;;;4985915;28;20031;-81
2023/07/18 00:32:35;;;;;;;2.83;2.28;;;13.00;99.90;;;;;;4991802;28;20116;-81
2023/07/18 00:35:01;;;;;;;3.45;2.42;;;13.00;99.90;;;;;;4983117;28;20031;-81
2023/07/18 00:37:27;;;;;;;3.55;2.80;;;13.00;99.90;;;;;;4986486;28;20030;-80
2023/07/18 00:39:55;;;;;;;4.07;2.53;;;13.00;99.90;;;;;;4984586;28;20653;-81
2023/07/18 00:42:20;;;;;;;5.40;2.65;;;13.00;99.90;;;;;;4992815;28;20054;-81
2023/07/18 00:44:50;;;;;;;4.70;2.45;;;13.00;99.90;;;;;;4990695;28;20030;-81
2023/07/18 00:47:17;;;;;;;7.75;2.85;;;12.90;99.90;;;;;;4984679;28;20120;-81
2023/07/18 00:49:43;;;;;;;4.80;2.20;;;12.90;99.90;;;;;;5010283;28;20630;-82
2023/07/18 00:52:10;;;;;;;3.80;2.08;;;12.90;99.90;;;;;;4984507;28;20157;-81
2023/07/18 00:54:37;;;;;;;3.45;2.55;;;12.80;99.90;;;;;;4989544;28;20034;-81
2023/07/18 00:57:02;;;;;;;3.65;2.35;;;12.80;99.90;;;;;;5003679;28;20023;-81
2023/07/18 00:59:29;;;;;;;4.68;2.65;;;12.80;99.90;;;;;;4979764;28;20392;-80
2023/07/18 01:01:55;;;;;;;3.08;2.33;;;12.80;99.90;;;;;;4988286;28;20045;-81
2023/07/18 01:04:21;;;;;;;2.88;2.58;;;12.80;99.90;;;;;;4982193;28;20117;-81
2023/07/18 01:06:48;;;;;;;3.90;2.35;;;12.70;99.90;;;;;;4992771;28;20050;-80
2023/07/18 01:09:14;;;;;;;5.10;2.40;;;12.70;99.90;;;;;;4984165;28;20105;-82
2023/07/18 01:11:39;;;;;;;3.33;2.00;;;12.70;99.90;;;;;;4987608;28;20058;-81
2023/07/18 01:14:05;;;;;;;2.67;2.45;;;12.70;99.90;;;;;;4984054;28;20117;-80
2023/07/18 01:16:31;;;;;;;4.18;2.72;;;12.70;99.90;;;;;;4984933;28;20724;-81
2023/07/18 01:18:56;;;;;;;4.50;2.30;;;12.70;99.90;;;;;;4987816;28;20485;-80
2023/07/18 01:21:22;;;;;;;5.97;2.83;;;12.70;99.90;;;;;;4989207;28;20129;-81
2023/07/18 01:23:48;;;;;;;3.78;2.58;;;12.70;99.90;;;;;;5000747;28;20030;-81
2023/07/18 01:26:15;;;;;;;5.15;2.92;;;12.60;99.90;;;;;;5010877;28;20022;-81
2023/07/18 01:28:41;;;;;;;5.38;3.00;;;12.60;99.90;;;;;;5006287;28;20094;-80
2023/07/18 01:31:07;;;;;;;5.63;3.25;;;12.60;99.90;;;;;;5007279;28;20493;-80
2023/07/18 01:33:33;;;;;;;3.38;2.75;;;12.60;99.90;;;;;;4999179;28;20559;-81
2023/07/18 01:35:58;;;;;;;3.58;2.63;;;12.60;99.90;;;;;;5006530;28;20050;-81
2023/07/18 01:38:30;;;;;;;4.50;3.00;;;12.60;99.90;;;;;;5004566;28;20022;-80
2023/07/18 01:40:57;;;;;;;4.22;3.42;;;12.60;99.90;;;;;;4990302;28;20449;-82
2023/07/18 01:43:23;;;;;;;5.47;3.22;;;12.60;99.90;;;;;;4985728;28;20022;-82
2023/07/18 01:45:49;;;;;;;3.40;2.60;;;12.60;99.90;;;;;;4996231;28;20205;-81
2023/07/18 01:48:14;;;;;;;5.07;3.22;;;12.60;99.90;;;;;;5002494;28;20072;-81
2023/07/18 01:50:41;;;;;;;4.97;2.67;;;12.60;99.90;;;;;;5006678;28;20366;-80
2023/07/18 01:53:07;;;;;;;5.22;3.00;;;12.60;99.90;;;;;;4982348;28;20029;-81
2023/07/18 01:55:32;;;;;;;6.25;3.28;;;12.60;99.90;;;;;;5003013;28;20015;-81
2023/07/18 01:57:58;;;;;;;3.83;2.63;;;12.60;99.90;;;;;;4990141;28;20042;-81
2023/07/18 02:00:24;;;;;;;4.85;2.80;;;12.60;99.90;;;;;;4987897;28;20027;-80
2023/07/18 02:02:52;;;;;;;5.95;3.60;;;12.60;99.90;;;;;;5007211;28;20022;-80
2023/07/18 02:05:20;;;;;;;6.38;3.55;;;12.60;99.90;;;;;;4988699;28;20030;-81
2023/07/18 02:07:47;;;;;;;6.07;3.90;;;12.60;99.90;;;;;;5006371;28;20393;-80
2023/07/18 02:10:14;;;;;;;6.78;4.30;;;12.60;99.90;;;;;;5006504;28;20477;-79
2023/07/18 02:12:40;;;;;;;8.63;3.95;;;12.60;99.90;;;;;;4990965;28;20034;-80
2023/07/18 02:15:06;;;;;;;6.35;4.35;;;12.70;99.90;;;;;;4988664;28;20109;-80
2023/07/18 02:17:35;;;;;;;7.80;4.45;;;12.70;99.90;;;;;;4988089;28;20034;-79
2023/07/18 02:20:06;;;;;;;7.10;4.40;;;12.70;99.90;;;;;;4988292;28;20025;-79
2023/07/18 02:22:35;;;;;;;8.07;4.40;;;12.80;99.90;;;;;;5001578;28;20421;-80
2023/07/18 02:25:02;;;;;;;8.95;4.65;;;12.80;99.90;;;;;;4987417;28;20033;-80
2023/07/18 02:27:27;;;;;;;9.85;5.03;;;12.80;99.90;;;;;;4988527;28;20386;-79
2023/07/18 02:29:53;;;;;;;8.13;5.03;;;12.80;99.90;;;;;;4988979;28;20044;-80
2023/07/18 02:32:18;;;;;;;7.15;5.47;;;12.80;99.90;;;;;;4988509;28;20699;-79
2023/07/18 02:34:45;;;;;;;8.38;4.97;;;12.80;99.90;;;;;;4985599;28;20030;-80
2023/07/18 02:37:11;;;;;;;8.32;5.82;;;12.80;99.90;;;;;;5004736;28;20033;-79
2023/07/18 02:39:38;;;;;;;7.28;5.85;;;12.70;99.90;;;;;;5004803;28;20072;-78
2023/07/18 02:42:06;;;;;;;7.72;5.05;;;12.70;99.90;;;;;;4990278;28;20026;-80
2023/07/18 02:44:32;;;;;;;7.07;5.40;;;12.60;99.90;;;;;;4985646;28;20026;-80
2023/07/18 02:46:57;;;;;;;6.30;4.93;;;12.60;99.90;;;;;;5006178;28;20061;-79
2023/07/18 02:49:23;;;;;;;6.22;4.68;;;12.60;99.90;;;;;;5005973;28;20407;-79
2023/07/18 02:51:48;;;;;;;8.35;5.47;;;12.60;99.90;;;;;;5002409;28;20824;-79
2023/07/18 02:54:14;;;;;;;6.82;4.93;;;12.60;99.90;;;;;;4991397;28;20026;-79
2023/07/18 02:56:39;;;;;;;9.20;5.47;;;12.60;99.90;;;;;;4997498;28;20022;-79
2023/07/18 02:59:06;;;;;;;7.97;5.97;;;12.50;99.90;;;;;;5006349;28;20397;-79
2023/07/18 03:01:31;;;;;;;6.20;5.25;;;12.50;99.90;;;;;;4986461;28;20033;-79
2023/07/18 03:03:57;;;;;;;9.55;5.50;;;12.50;99.90;;;;;;5000184;28;20033;-79
2023/07/18 03:06:24;;;;;;;6.88;5.20;;;12.50;99.90;;;;;;4990814;28;20049;-80
2023/07/18 03:08:50;;;;;;;8.57;5.95;;;12.50;99.90;;;;;;4997849;28;20029;-80
2023/07/18 03:11:17;;;;;;;6.82;5.45;;;12.50;99.90;;;;;;4989689;28;20041;-79
2023/07/18 03:13:42;;;;;;;11.00;5.88;;;12.50;99.90;;;;;;5000785;28;20115;-80
2023/07/18 03:16:08;;;;;;;6.05;5.35;;;12.50;99.90;;;;;;4999305;28;20653;-79
2023/07/18 03:18:33;;;;;;;11.07;6.25;;;12.50;99.90;;;;;;4983383;28;20461;-79
2023/07/18 03:20:59;;;;;;;6.05;5.35;;;12.50;99.90;;;;;;4985954;28;20015;-80
2023/07/18 03:23:26;;;;;;;9.35;6.75;;;12.50;99.90;;;;;;4982854;28;20400;-79
2023/07/18 03:25:51;;;;;;;7.55;6.13;;;12.50;99.90;;;;;;5004144;28;20057;-79
2023/07/18 03:28:17;;;;;;;10.32;6.22;;;12.50;99.90;;;;;;4982772;28;20461;-79
2023/07/18 03:30:43;;;;;;;6.47;5.15;;;12.50;99.90;;;;;;5006404;28;20512;-79
2023/07/18 03:33:09;;;;;;;10.50;6.20;;;12.50;99.90;;;;;;4981485;28;20433;-78
2023/07/18 03:35:35;;;;;;;6.25;5.63;;;12.50;99.90;;;;;;4986213;28;20051;-79
2023/07/18 03:38:01;;;;;;;8.90;6.72;;;12.50;99.90;;;;;;4982759;28;20456;-79
2023/07/18 03:40:27;;;;;;;9.02;5.78;;;12.50;99.90;;;;;;4981889;28;20109;-79
2023/07/18 03:42:52;;;;;;;7.63;5.80;;;12.50;99.90;;;;;;4987099;28;20032;-79
2023/07/18 03:45:18;;;;;;;10.00;6.43;;;12.40;99.90;;;;;;4980103;28;20022;-78
2023/07/18 03:47:44;;;;;;;8.45;6.70;;;12.50;99.90;;;;;;4990973;28;20613;-78
2023/07/18 03:50:11;;;;;;;7.10;6.18;;;12.50;99.90;;;;;;5014625;28;20027;-78
2023/07/18 03:52:37;;;;;;;9.02;6.10;;;12.50;99.90;;;;;;4988809;28;20116;-79
2023/07/18 03:55:04;;;;;;;10.05;6.72;;;12.50;99.90;;;;;;4977561;28;20030;-78
2023/07/18 03:57:33;;;;;;;7.53;5.65;;;12.50;99.90;;;;;;4975493;28;20057;-78
2023/07/18 03:59:59;;;;;;;9.27;6.43;;;12.60;99.90;;;;;;5001061;28;20297;-79
2023/07/18 04:02:25;;;;;;;9.02;6.13;;;12.60;99.90;;;;;;4944581;28;1077710;-78
2023/07/18 04:04:51;;;;;;;9.77;7.00;;;12.60;99.90;;;;;;5007698;28;20037;-78
2023/07/18 04:07:17;;;;;;;13.00;8.40;;;12.60;99.90;;;;;;4986679;28;20019;-78
2023/07/18 04:09:42;;;;;;;9.95;7.78;;;12.60;99.90;;;;;;5002798;28;20485;-78
2023/07/18 04:12:09;;;;;;;7.60;6.35;;;12.60;99.90;;;;;;4983796;28;20080;-79
2023/07/18 04:14:35;;;;;;;10.88;8.15;;;12.60;99.90;;;;;;4986326;28;20027;-78
2023/07/18 04:17:02;;;;;;;7.82;6.22;;;12.60;99.90;;;;;;4986916;28;20544;-79
2023/07/18 04:19:29;;;;;;;12.15;7.45;;;12.60;99.90;;;;;;4979360;28;20559;-79
2023/07/18 04:21:55;;;;;;;9.32;6.90;;;12.70;99.90;;;;;;5005513;28;20026;-80
2023/07/18 04:24:21;;;;;;;9.38;6.53;;;12.70;99.90;;;;;;5002757;28;20485;-80
2023/07/18 04:26:47;;;;;;;8.32;7.03;;;12.70;99.90;;;;;;4981664;28;20029;-80
2023/07/18 04:29:13;;;;;;;13.55;7.47;;;12.70;99.90;;;;;;4986925;28;20026;-79
2023/07/18 04:31:38;;;;;;;9.88;6.53;;;12.80;99.90;;;;;;5000461;28;20166;-79
2023/07/18 04:34:04;;;;;;;9.38;7.75;;;12.80;99.90;;;;;;5003848;28;20037;-80
2023/07/18 04:36:30;;;;;;;12.93;7.47;;;12.90;99.90;;;;;;5002314;28;20070;-79
2023/07/18 04:38:55;;;;;;;14.07;7.10;;;12.90;99.90;;;;;;4985337;28;20045;-80
2023/07/18 04:41:21;;;;;;;13.13;7.85;;;13.00;99.90;;;;;;4982559;28;20026;-80
2023/07/18 04:43:46;;;;;;;11.68;6.78;;;13.10;99.90;;;;;;4985891;28;20380;-80
2023/07/18 04:46:30;;;;;;;11.05;7.85;;;13.10;99.90;;;;;;4986651;28;20735;-80
2023/07/18 04:48:55;;;;;;;10.88;6.50;;;13.20;99.90;;;;;;4984293;28;20111;-79
2023/07/18 04:51:21;;;;;;;10.68;7.03;;;13.30;99.90;;;;;;5002438;28;20021;-79
2023/07/18 04:53:46;;;;;;;9.73;7.57;;;13.30;99.90;;;;;;5001142;28;20412;-80
2023/07/18 04:56:12;;;;;;;10.15;7.07;;;13.30;99.90;;;;;;5004063;28;20053;-79
2023/07/18 04:58:37;;;;;;;9.23;7.55;;;13.30;99.90;;;;;;5003093;28;20022;-80
2023/07/18 05:01:03;;;;;;;15.18;7.45;;;13.40;99.90;;;;;;4988262;28;20034;-78
2023/07/18 05:03:28;;;;;;;9.65;6.95;;;13.40;99.90;;;;;;4985815;28;20037;-81
2023/07/18 05:05:56;;;;;;;12.73;6.97;;;13.40;99.90;;;;;;4986129;28;20036;-80
2023/07/18 05:08:21;;;;;;;11.80;6.68;;;13.50;99.90;;;;;;4988021;28;20029;-79
2023/07/18 05:10:47;;;;;;;10.25;7.78;;;13.50;99.90;;;;;;4988715;28;20024;-81
2023/07/18 05:13:13;;;;;;;11.20;6.97;;;13.50;99.90;;;;;;5008924;28;20081;-80
2023/07/18 05:15:44;;;;;;;11.23;7.28;;;13.50;99.90;;;;;;4990118;28;20528;-80
2023/07/18 05:18:10;;;;;;;14.20;7.32;;;13.60;99.90;;;;;;4981958;28;20113;-79
2023/07/18 05:20:35;;;;;;;11.90;7.35;;;13.60;99.90;;;;;;5011338;28;20041;-80
2023/07/18 05:23:01;;;;;;;9.50;6.38;;;13.70;99.90;;;;;;4984435;28;20370;-79
2023/07/18 05:25:27;;;;;;;8.95;6.72;;;13.70;99.90;;;;;;5008920;28;20018;-82
2023/07/18 05:27:53;;;;;;;14.52;7.22;;;13.70;99.90;;;;;;4986878;28;20023;-80
2023/07/18 05:30:20;;;;;;;10.35;7.00;;;13.70;99.90;;;;;;4988542;28;20034;-81
2023/07/18 05:32:46;;;;;;;9.55;6.57;;;13.70;99.90;;;;;;4991933;28;20018;-80
2023/07/18 05:35:16;;;;;;;9.80;6.22;;;13.80;99.90;;;;;;5004005;28;20030;-80
2023/07/18 05:37:42;;;;;;;9.40;6.38;;;13.80;99.90;;;;;;5008630;28;20120;-81
2023/07/18 05:40:09;;;;;;;12.57;7.57;;;13.90;99.90;;;;;;4986751;28;20389;-79
2023/07/18 05:42:36;;;;;;;12.63;6.75;;;14.00;99.90;;;;;;4994083;28;20026;-78
2023/07/18 05:45:01;;;;;;;13.80;7.28;;;14.00;99.90;;;;;;4985151;28;20034;-80
2023/07/18 05:47:27;;;;;;;8.73;6.63;;;14.10;99.90;;;;;;5010603;28;20477;-80
2023/07/18 05:49:53;;;;;;;13.30;7.88;;;14.10;99.90;;;;;;4983231;28;20030;-79
2023/07/18 05:52:18;;;;;;;10.98;6.72;;;14.10;99.90;;;;;;4996859;28;20060;-80
2023/07/18 05:54:45;;;;;;;10.68;7.25;;;14.20;99.90;;;;;;4990632;28;20033;-79
2023/07/18 05:57:10;;;;;;;11.30;6.70;;;14.30;99.90;;;;;;4985569;28;20023;-80
2023/07/18 05:59:36;;;;;;;11.30;6.57;;;14.40;99.90;;;;;;5010617;28;20032;-79
2023/07/18 06:02:05;;;;;;;12.30;7.25;;;14.40;99.90;;;;;;5002677;28;20432;-78
2023/07/18 06:04:30;;;;;;;10.07;6.10;;;14.50;99.90;;;;;;5010282;28;20056;-78
2023/07/18 06:06:56;;;;;;;9.32;6.60;;;14.60;99.90;;;;;;5003163;28;20517;-79
2023/07/18 06:09:22;;;;;;;11.68;6.88;;;14.80;99.90;;;;;;5003335;28;20088;-78
2023/07/18 06:11:47;;;;;;;9.23;6.40;;;14.90;99.90;;;;;;4993069;28;20022;-78
2023/07/18 06:14:13;;;;;;;11.18;6.57;;;15.00;99.90;;;;;;4986867;28;20390;-78
2023/07/18 06:16:38;;;;;;;10.68;6.25;;;15.10;99.90;;;;;;5005029;28;20090;-77
2023/07/18 06:19:04;;;;;;;10.95;5.45;;;15.20;99.90;;;;;;5006381;28;20022;-78
2023/07/18 06:21:30;;;;;;;12.30;6.35;;;15.30;99.90;;;;;;4984404;28;20061;-79
2023/07/18 06:23:56;;;;;;;11.10;5.25;;;15.40;99.90;;;;;;4989051;28;20026;-78
2023/07/18 06:26:22;;;;;;;11.60;6.32;;;15.50;99.90;;;;;;5002962;28;20109;-79
2023/07/18 06:28:48;;;;;;;11.88;5.22;;;15.70;99.90;;;;;;5007642;28;20026;-79
2023/07/18 06:31:14;;;;;;;11.43;4.95;;;15.80;99.90;;;;;;5007834;28;20037;-79
2023/07/18 06:33:40;;;;;;;6.75;4.78;;;15.90;99.90;;;;;;4986212;28;20125;-80
2023/07/18 06:36:06;;;;;;;7.25;5.18;;;16.00;99.90;;;;;;5007174;28;20515;-79
2023/07/18 06:38:32;;;;;;;11.30;5.55;;;16.10;99.90;;;;;;4988161;28;20022;-79
2023/07/18 06:40:57;;;;;;;7.05;4.50;;;16.10;99.90;;;;;;4990028;28;20499;-80
2023/07/18 06:43:24;;;;;;;7.35;5.07;;;16.20;99.90;;;;;;4992265;28;20029;-79
2023/07/18 06:45:50;;;;;;;10.70;4.82;;;16.20;99.90;;;;;;5007347;28;20452;-79
2023/07/18 06:48:16;;;;;;;9.18;4.40;;;16.20;99.90;;;;;;5008020;28;20023;-79
2023/07/18 06:50:46;;;;;;;8.13;4.93;;;16.30;99.90;;;;;;4992485;28;20030;-79
2023/07/18 06:53:13;;;;;;;8.10;4.68;;;16.30;99.90;;;;;;5005428;28;20022;-79
2023/07/18 06:55:41;;;;;;;6.78;4.22;;;16.40;99.90;;;;;;4989476;28;20085;-80
2023/07/18 06:58:08;;;;;;;7.35;4.82;;;16.50;99.90;;;;;;5000051;28;20018;-79
2023/07/18 07:00:34;;;;;;;7.80;4.32;;;16.60;99.90;;;;;;4987568;28;20030;-79
2023/07/18 07:02:59;;;;;;;8.45;4.75;;;16.60;99.90;;;;;;4989575;28;20045;-80
2023/07/18 07:05:25;;;;;;;8.75;4.45;;;16.70;99.90;;;;;;5006292;28;20552;-79
2023/07/18 07:07:51;;;;;;;10.98;4.28;;;16.70;99.90;;;;;;5000017;28;20021;-79
2023/07/18 07:10:17;;;;;;;7.93;3.78;;;16.80;99.90;;;;;;4989062;28;20026;-80
2023/07/18 07:12:42;;;;;;;10.15;4.75;;;16.90;99.90;;;;;;5005335;28;20136;-80
2023/07/18 07:15:09;;;;;;;10.20;4.93;;;16.90;99.90;;;;;;4993646;28;20401;-80
2023/07/18 07:17:35;;;;;;;9.32;4.20;;;16.90;99.90;;;;;;4998717;28;20100;-79
2023/07/18 07:20:01;;;;;;;7.90;4.38;;;17.00;99.90;;;;;;5013722;28;20539;-79
2023/07/18 07:22:27;;;;;;;7.43;3.63;;;17.00;99.90;;;;;;5006374;28;20030;-79
2023/07/18 07:24:53;;;;;;;7.75;4.22;;;17.00;99.90;;;;;;4991893;28;20392;-79
2023/07/18 07:27:19;;;;;;;8.52;4.18;;;17.00;99.90;;;;;;4990738;28;20030;-79
2023/07/18 07:29:44;;;;;;;8.90;3.38;;;17.10;99.90;;;;;;4988249;28;20428;-79
2023/07/18 07:32:10;;;;;;;5.03;3.55;;;17.30;99.90;;;;;;5000999;28;20042;-78
2023/07/18 07:34:36;;;;;;;8.02;4.07;;;17.30;99.90;;;;;;4984807;28;20029;-79
2023/07/18 07:37:01;;;;;;;8.25;4.55;;;17.30;99.90;;;;;;5003919;28;20029;-79
2023/07/18 07:39:27;;;;;;;9.07;3.95;;;17.30;99.90;;;;;;5006104;28;20041;-79
2023/07/18 07:41:52;;;;;;;11.38;4.60;;;17.40;99.90;;;;;;5002903;28;20033;-79
2023/07/18 07:44:18;;;;;;;6.72;3.75;;;17.60;99.90;;;;;;5004752;28;20033;-78
2023/07/18 07:46:43;;;;;;;6.50;4.20;;;17.70;99.90;;;;;;5004889;28;20092;-79
2023/07/18 07:49:11;;;;;;;5.00;3.42;;;17.70;99.90;;;;;;4992537;28;20046;-78
2023/07/18 07:51:36;;;;;;;7.10;4.07;;;17.90;99.90;;;;;;4984463;28;20396;-78
2023/07/18 07:54:02;;;;;;;8.60;3.45;;;18.00;99.90;;;;;;4995424;28;20025;-79
2023/07/18 07:56:28;;;;;;;6.57;3.60;;;18.10;99.90;;;;;;5007588;28;20026;-78
2023/07/18 07:58:53;;;;;;;6.72;3.28;;;18.30;99.90;;;;;;4982086;28;20026;-78
2023/07/18 08:01:20;;;;;;;9.13;3.85;;;18.30;99.90;;;;;;4999624;28;20036;-79
2023/07/18 08:03:45;;;;;;;8.82;4.57;;;18.30;99.90;;;;;;4983933;28;20084;-79
2023/07/18 08:06:11;;;;;;;4.65;3.22;;;18.20;99.90;;;;;;5001311;28;20102;-78
2023/07/18 08:08:36;;;;;;;7.90;3.88;;;18.20;99.90;;;;;;5000566;28;20396;-78
2023/07/18 08:11:03;;;;;;;7.93;3.70;;;18.30;99.90;;;;;;4986611;28;20067;-78
2023/07/18 08:13:29;;;;;;;5.88;3.58;;;18.30;99.90;;;;;;5001911;28;20021;-78
2023/07/18 08:15:55;;;;;;;4.93;3.10;;;18.30;99.90;;;;;;4992831;28;20030;-78
2023/07/18 08:18:21;;;;;;;5.65;3.08;;;18.30;99.90;;;;;;4998279;28;20018;-78
2023/07/18 08:20:47;;;;;;;4.93;2.80;;;18.40;99.90;;;;;;5004016;28;20024;-80
2023/07/18 08:23:13;;;;;;;6.22;2.63;;;18.40;99.90;;;;;;4994543;28;20049;-78
2023/07/18 08:25:38;;;;;;;6.38;2.78;;;18.40;99.90;;;;;;5004029;28;20018;-78
2023/07/18 08:28:04;;;;;;;6.00;2.55;;;18.50;99.90;;;;;;4998402;28;20385;-78
2023/07/18 08:30:30;;;;;;;4.68;2.63;;;18.50;99.90;;;;;;5004987;28;20156;-78
2023/07/18 08:32:56;;;;;;;5.07;2.45;;;18.50;99.90;;;;;;4987093;28;20476;-77
2023/07/18 08:35:22;;;;;;;6.47;3.08;;;18.60;99.90;;;;;;4998106;28;20026;-78
2023/07/18 08:37:48;;;;;;;3.85;2.90;;;18.80;99.90;;;;;;5004426;28;20109;-78
2023/07/18 08:40:14;;;;;;;8.55;3.00;;;19.00;99.90;;;;;;4998738;28;20141;-78
2023/07/18 08:42:39;;;;;;;4.63;2.28;;;19.10;99.90;;;;;;4988931;28;20025;-78
2023/07/18 08:45:08;;;;;;;4.13;2.50;;;19.20;99.90;;;;;;4997403;28;20034;-77
2023/07/18 08:47:34;;;;;;;4.95;2.45;;;19.30;99.90;;;;;;5005625;28;20638;-78
2023/07/18 08:50:01;;;;;;;2.40;2.20;;;19.30;99.90;;;;;;4998267;28;20032;-77
2023/07/18 08:52:27;;;;;;;3.22;2.45;;;19.30;99.90;;;;;;4999360;28;20026;-78
2023/07/18 08:54:52;;;;;;;5.50;2.70;;;19.30;99.90;;;;;;5003187;28;20045;-78
2023/07/18 08:57:19;;;;;;;5.70;2.78;;;19.40;99.90;;;;;;4998032;28;20030;-78
2023/07/18 08:59:46;;;;;;;4.70;2.28;;;19.30;99.90;;;;;;4988117;28;20027;-78
2023/07/18 09:02:12;;;;;;;5.20;2.40;;;19.30;99.90;;;;;;4993266;28;20030;-78
2023/07/18 09:04:37;;;;;;;3.75;2.13;;;19.40;99.90;;;;;;4998738;28;20060;-78
2023/07/18 09:07:03;;;;;;;3.05;2.30;;;19.40;99.90;;;;;;4999275;28;20512;-77
2023/07/18 09:09:29;;;;;;;7.05;2.53;;;19.50;99.90;;;;;;4998510;28;20032;-78
2023/07/18 09:11:59;;;;;;;3.55;2.00;;;19.60;99.90;;;;;;4983391;28;20057;-78
2023/07/18 09:14:28;;;;;;;3.92;2.08;;;19.60;99.90;;;;;;4997714;28;20031;-77
2023/07/18 09:16:54;;;;;;;4.32;2.05;;;19.70;99.90;;;;;;4996400;28;20040;-78
2023/07/18 09:19:42;;;;;;;7.43;3.00;;;19.80;99.90;;;;;;4981974;28;20413;-78
2023/07/18 09:22:17;;;;;;;3.13;1.65;;;20.00;99.90;;;;;;4984641;28;20028;-75
2023/07/18 09:24:43;;;;;;;6.55;2.40;;;19.90;99.90;;;;;;4981804;28;20026;-78
2023/07/18 09:27:14;;;;;;;1.65;1.35;;;20.00;99.90;;;;;;4984270;28;20029;-77
2023/07/18 09:29:47;;;;;;;3.97;1.83;;;20.00;99.90;;;;;;4994244;28;20121;-77
2023/07/18 09:32:20;;;;;;;2.97;1.50;;;20.20;99.90;;;;;;4983114;28;20447;-77
2023/07/18 09:34:53;;;;;;;3.13;1.65;;;20.20;99.90;;;;;;4979996;28;20494;-78
2023/07/18 09:37:19;;;;;;;2.25;1.80;;;20.30;99.90;;;;;;4987715;28;20099;-77
2023/07/18 09:39:45;;;;;;;4.97;2.05;;;20.40;99.90;;;;;;4975573;28;20521;-77
2023/07/18 09:42:12;;;;;;;4.20;1.65;;;20.50;99.90;;;;;;5003280;28;20045;-76
2023/07/18 09:44:39;;;;;;;2.10;1.33;;;20.50;99.90;;;;;;4998767;28;20033;-76
2023/07/18 09:47:06;;;;;;;4.15;1.40;;;20.50;99.90;;;;;;5003178;28;20057;-77
2023/07/18 09:49:33;;;;;;;4.32;1.38;;;20.60;99.90;;;;;;5000168;28;20030;-76
2023/07/18 09:52:05;;;;;;;4.45;1.73;;;20.80;99.90;;;;;;4997740;28;20030;-77
2023/07/18 09:54:32;;;;;;;2.55;1.50;;;20.70;99.90;;;;;;5004765;28;20030;-77
2023/07/18 09:57:08;;;;;;;1.58;1.45;;;20.70;99.90;;;;;;4983416;28;20019;-76
2023/07/18 09:59:37;;;;;;;3.28;1.27;;;20.80;99.90;;;;;;5007816;28;20022;-77
2023/07/18 10:02:06;;;;;;;1.90;1.20;;;20.80;99.90;;;;;;5000333;28;20073;-77
2023/07/18 10:04:32;;;;;;;2.20;1.40;;;20.90;99.90;;;;;;5007827;28;20041;-77
2023/07/18 10:06:59;;;;;;;5.75;1.27;;;20.80;99.90;;;;;;5000391;28;20102;-77
2023/07/18 10:09:27;;;;;;;3.20;1.30;;;20.80;99.90;;;;;;5001042;28;20030;-77
2023/07/18 10:12:00;;;;;;;2.22;1.45;;;20.80;99.90;;;;;;4986593;28;20338;-77
2023/07/18 10:14:56;;;;;;;1.95;1.50;;;20.90;99.90;;;;;;4982721;28;20519;-77
2023/07/18 10:17:31;;;;;;;3.90;1.15;;;20.90;99.90;;;;;;5004597;28;20022;-77
2023/07/18 10:19:57;;;;;;;2.10;1.35;;;21.00;99.90;;;;;;4998060;28;20440;-77
2023/07/18 10:22:30;;;;;;;1.63;1.10;;;21.00;99.90;;;;;;5001659;28;20030;-76
2023/07/18 10:25:06;;;;;;;2.17;1.00;;;21.00;99.90;;;;;;4984661;28;20057;-77
2023/07/18 10:27:42;;;;;;;1.20;1.00;;;21.00;99.90;;;;;;5001144;28;20106;-77
2023/07/18 10:30:13;;;;;;;4.13;1.55;;;20.90;99.90;;;;;;5004980;28;20029;-77
2023/07/18 10:32:39;;;;;;;3.13;1.15;;;20.90;99.90;;;;;;4989427;28;20113;-77
2023/07/18 10:35:13;;;;;;;1.73;1.27;;;21.00;99.90;;;;;;4981919;28;20026;-77
2023/07/18 10:37:43;;;;;;;4.60;1.40;;;20.90;99.90;;;;;;5006038;28;20041;-76
2023/07/18 10:40:10;;;;;;;3.70;1.27;;;20.90;99.90;;;;;;5000342;28;20512;-77
2023/07/18 10:42:36;;;;;;;2.85;1.25;;;20.80;99.90;;;;;;5007354;28;20101;-79
2023/07/18 10:45:05;;;;;;;3.13;1.10;;;20.80;99.90;;;;;;5001292;28;20069;-76
2023/07/18 10:47:36;;;;;;;1.38;1.00;;;20.80;99.90;;;;;;5008631;28;20102;-78
2023/07/18 10:50:03;;;;;;;1.55;1.00;;;20.80;99.90;;;;;;4982173;28;20121;-78
2023/07/18 10:52:28;;;;;;;5.53;1.15;;;20.90;99.90;;;;;;5001917;28;20050;-78
2023/07/18 10:54:58;;;;;;;3.67;1.48;;;21.00;99.90;;;;;;5005590;28;20046;-76
2023/07/18 10:57:38;;;;;;;3.00;1.20;;;21.10;99.90;;;;;;5001647;28;20027;-76
2023/07/18 11:00:05;;;;;;;2.83;1.30;;;21.20;99.90;;;;;;4988550;28;20490;-76
2023/07/18 11:02:37;;;;;;;4.78;1.30;;;21.30;99.90;;;;;;5005745;28;20034;-77
2023/07/18 11:05:16;;;;;;;9.77;1.17;;;21.20;99.90;;;;;;5000683;28;20038;-77
2023/07/18 11:07:43;;;;;;;2.35;0.93;;;21.00;99.90;;;;;;5001581;28;20073;-76
2023/07/18 11:10:09;;;;;;;1.77;0.85;;;21.00;99.90;;;;;;5001768;28;20033;-77
2023/07/18 11:12:35;;;;;;;2.28;1.30;;;20.90;99.90;;;;;;5001717;28;20374;-78
2023/07/18 11:15:04;;;;;;;2.03;1.17;;;20.90;99.90;;;;;;4984965;28;20029;-77
2023/07/18 11:17:30;;;;;;;2.25;1.10;;;20.90;99.90;;;;;;5002220;28;20160;-77
2023/07/18 11:19:57;;;;;;;2.35;0.70;;;20.90;99.90;;;;;;5000051;28;20045;-77
2023/07/18 11:22:23;;;;;;;2.15;0.88;;;21.00;99.90;;;;;;5001167;28;20018;-77
2023/07/18 11:24:49;;;;;;;2.55;1.23;;;21.10;99.90;;;;;;4992547;28;20036;-78
2023/07/18 11:27:21;;;;;;;3.45;1.25;;;21.10;99.90;;;;;;5002783;28;20377;-77
2023/07/18 11:29:57;;;;;;;1.48;1.00;;;21.20;99.90;;;;;;5000760;28;20018;-77
2023/07/18 11:32:41;;;;;;;1.70;0.90;;;21.30;99.90;;;;;;4984590;28;20042;-78
2023/07/18 11:35:11;;;;;;;1.75;0.90;;;21.40;99.90;;;;;;4998468;28;20034;-76
2023/07/18 11:37:43;;;;;;;2.55;1.08;;;21.30;99.90;;;;;;4987261;28;20385;-77
2023/07/18 11:40:23;;;;;;;1.65;1.13;;;21.40;99.90;;;;;;4981710;28;20034;-77
2023/07/18 11:42:55;;;;;;;2.60;0.80;;;21.50;99.90;;;;;;5001358;28;20100;-77
2023/07/18 11:45:22;;;;;;;1.38;0.93;;;21.60;99.90;;;;;;4983014;28;20514;-78
2023/07/18 11:47:51;;;;;;;1.63;0.90;;;21.60;99.90;;;;;;5005952;28;20068;-77
2023/07/18 11:50:17;;;;;;;2.88;1.05;;;21.50;99.90;;;;;;4985642;28;20047;-78
2023/07/18 11:52:48;;;;;;;1.27;0.90;;;21.30;99.90;;;;;;4990203;28;20027;-77
2023/07/18 11:55:18;;;;;;;2.95;1.20;;;21.20;99.90;;;;;;5000827;28;20040;-77
2023/07/18 11:57:44;;;;;;;3.72;1.80;;;21.10;99.90;;;;;;5001493;28;20575;-77
2023/07/18 12:00:14;;;;;;;3.20;0.98;;;21.00;99.90;;;;;;5001970;28;20053;-77
2023/07/18 12:02:41;;;;;;;2.05;1.05;;;20.90;99.90;;;;;;4994731;28;20038;-78
2023/07/18 12:05:07;;;;;;;2.55;1.10;;;21.00;99.90;;;;;;4986288;28;20390;-77
2023/07/18 12:07:33;;;;;;;1.73;1.30;;;20.80;99.90;;;;;;5000129;28;20424;-77
2023/07/18 12:09:59;;;;;;;4.50;1.17;;;20.80;99.90;;;;;;5002107;28;20033;-77
2023/07/18 12:12:24;;;;;;;3.13;1.20;;;20.70;99.90;;;;;;5004068;28;20026;-77
2023/07/18 12:14:51;;;;;;;2.05;1.17;;;20.60;99.90;;;;;;4997338;28;20021;-77
2023/07/18 12:17:17;;;;;;;1.60;0.82;;;20.60;99.90;;;;;;5001520;28;20022;-77
2023/07/18 12:19:44;;;;;;;3.55;1.30;;;20.50;99.90;;;;;;4999744;28;20483;-77
2023/07/18 12:22:10;;;;;;;2.70;1.50;;;20.60;99.90;;;;;;5000535;28;20053;-77
2023/07/18 12:24:36;;;;;;;1.95;1.02;;;20.60;99.90;;;;;;4981666;28;20034;-78
2023/07/18 12:27:02;;;;;;;1.95;1.00;;;20.70;99.90;;;;;;4984257;28;20033;-77
2023/07/18 12:29:27;;;;;;;1.65;0.90;;;20.80;99.90;;;;;;5001223;28;20037;-78
2023/07/18 12:31:53;;;;;;;1.58;1.15;;;21.00;99.90;;;;;;4983901;28;20030;-77
2023/07/18 12:34:19;;;;;;;2.88;1.20;;;21.10;99.90;;;;;;5001124;28;20029;-77
2023/07/18 12:36:45;;;;;;;1.20;0.85;;;21.20;99.90;;;;;;4999633;28;20037;-77
2023/07/18 12:39:12;;;;;;;2.08;1.05;;;21.30;99.90;;;;;;4984597;28;20017;-78
2023/07/18 12:41:38;;;;;;;3.38;1.13;;;21.50;99.90;;;;;;5000841;28;20025;-77
2023/07/18 12:44:03;;;;;;;1.63;1.00;;;21.60;99.90;;;;;;5001505;28;20034;-77